sensor_id;sensor_type;location;lat;lon;timestamp;temperature;humidity
15099;DHT22;33900;53.640;9.942;2023-05-10T00:02:10;18.70;49.20
15099;DHT22;33900;53.640;9.942;2023-05-10T00:04:36;18.70;49.20
15099;DHT22;33900;53.640;9.942;2023-05-10T00:07:02;18.60;49.20
15099;DHT22;33900;53.640;9.942;2023-05-10T00:09:27;18.70;49.30
15099;DHT22;33900;53.640;9.942;2023-05-10T00:11:53;18.60;49.40
15099;DHT22;33900;53.640;9.942;2023-05-10T00:14:19;18.60;49.40
15099;DHT22;33900;53.640;9.942;2023-05-10T00:16:44;18.70;49.40
15099;DHT22;33900;53.640;9.942;2023-05-10T00:19:10;18.70;49.50
15099;DHT22;33900;53.640;9.942;2023-05-10T00:21:36;18.70;49.50
15099;DHT22;33900;53.640;9.942;2023-05-10T00:24:02;18.60;49.50
15099;DHT22;33900;53.640;9.942;2023-05-10T00:26:27;18.60;49.50
15099;DHT22;33900;53.640;9.942;2023-05-10T00:28:55;18.60;49.70
15099;DHT22;33900;53.640;9.942;2023-05-10T00:31:23;18.60;49.60
15099;DHT22;33900;53.640;9.942;2023-05-10T00:33:49;18.50;49.70
15099;DHT22;33900;53.640;9.942;2023-05-10T00:36:15;18.50;49.90
15099;DHT22;33900;53.640;9.942;2023-05-10T00:38:40;18.40;49.90
15099;DHT22;33900;53.640;9.942;2023-05-10T00:41:06;18.40;50.10
15099;DHT22;33900;53.640;9.942;2023-05-10T00:43:34;18.30;50.20
15099;DHT22;33900;53.640;9.942;2023-05-10T00:46:00;18.20;50.40
15099;DHT22;33900;53.640;9.942;2023-05-10T00:48:25;18.20;50.60
15099;DHT22;33900;53.640;9.942;2023-05-10T00:50:51;18.20;50.60
15099;DHT22;33900;53.640;9.942;2023-05-10T00:53:17;18.20;50.70
15099;DHT22;33900;53.640;9.942;2023-05-10T00:55:43;18.10;50.80
15099;DHT22;33900;53.640;9.942;2023-05-10T00:58:12;18.10;50.90
15099;DHT22;33900;53.640;9.942;2023-05-10T01:00:41;18.00;50.90
15099;DHT22;33900;53.640;9.942;2023-05-10T01:03:10;18.00;51.00
15099;DHT22;33900;53.640;9.942;2023-05-10T01:05:38;18.00;51.20
15099;DHT22;33900;53.640;9.942;2023-05-10T01:08:04;17.90;51.20
15099;DHT22;33900;53.640;9.942;2023-05-10T01:10:32;17.90;51.30
15099;DHT22;33900;53.640;9.942;2023-05-10T01:12:59;17.80;51.40
15099;DHT22;33900;53.640;9.942;2023-05-10T01:15:28;17.80;51.40
15099;DHT22;33900;53.640;9.942;2023-05-10T01:17:53;17.80;51.40
15099;DHT22;33900;53.640;9.942;2023-05-10T01:20:19;17.80;51.40
15099;DHT22;33900;53.640;9.942;2023-05-10T01:33:07;17.70;51.50
15099;DHT22;33900;53.640;9.942;2023-05-10T01:46:17;17.60;51.90
15099;DHT22;33900;53.640;9.942;2023-05-10T01:48:48;17.60;52.00
15099;DHT22;33900;53.640;9.942;2023-05-10T01:51:26;17.60;52.10
15099;DHT22;33900;53.640;9.942;2023-05-10T01:53:54;17.60;52.10
15099;DHT22;33900;53.640;9.942;2023-05-10T01:56:25;17.60;52.10
15099;DHT22;33900;53.640;9.942;2023-05-10T01:58:51;17.60;52.20
15099;DHT22;33900;53.640;9.942;2023-05-10T02:01:18;17.60;52.10
15099;DHT22;33900;53.640;9.942;2023-05-10T02:03:45;17.60;52.20
15099;DHT22;33900;53.640;9.942;2023-05-10T02:06:12;17.50;52.30
15099;DHT22;33900;53.640;9.942;2023-05-10T02:08:41;17.40;52.40
15099;DHT22;33900;53.640;9.942;2023-05-10T02:11:08;17.40;52.50
15099;DHT22;33900;53.640;9.942;2023-05-10T02:17:07;17.30;52.60
15099;DHT22;33900;53.640;9.942;2023-05-10T02:19:34;17.30;52.60
15099;DHT22;33900;53.640;9.942;2023-05-10T02:22:02;17.30;52.60
15099;DHT22;33900;53.640;9.942;2023-05-10T02:24:31;17.30;52.60
15099;DHT22;33900;53.640;9.942;2023-05-10T02:27:01;17.30;52.60
15099;DHT22;33900;53.640;9.942;2023-05-10T02:29:27;17.30;52.80
15099;DHT22;33900;53.640;9.942;2023-05-10T02:31:57;17.20;52.80
15099;DHT22;33900;53.640;9.942;2023-05-10T02:34:23;17.20;52.80
15099;DHT22;33900;53.640;9.942;2023-05-10T02:36:52;17.20;52.90
15099;DHT22;33900;53.640;9.942;2023-05-10T02:39:21;17.20;53.00
15099;DHT22;33900;53.640;9.942;2023-05-10T02:41:48;17.10;53.10
15099;DHT22;33900;53.640;9.942;2023-05-10T02:44:18;17.10;53.20
15099;DHT22;33900;53.640;9.942;2023-05-10T02:46:45;17.00;53.20
15099;DHT22;33900;53.640;9.942;2023-05-10T02:49:12;17.00;53.20
15099;DHT22;33900;53.640;9.942;2023-05-10T02:51:40;17.00;53.90
15099;DHT22;33900;53.640;9.942;2023-05-10T02:54:09;17.00;53.30
15099;DHT22;33900;53.640;9.942;2023-05-10T02:56:36;17.00;53.40
15099;DHT22;33900;53.640;9.942;2023-05-10T02:59:07;17.00;53.50
15099;DHT22;33900;53.640;9.942;2023-05-10T03:01:36;17.00;53.50
15099;DHT22;33900;53.640;9.942;2023-05-10T03:04:01;16.90;53.60
15099;DHT22;33900;53.640;9.942;2023-05-10T03:06:27;16.90;53.70
15099;DHT22;33900;53.640;9.942;2023-05-10T03:08:57;16.90;53.90
15099;DHT22;33900;53.640;9.942;2023-05-10T03:14:10;16.80;54.00
15099;DHT22;33900;53.640;9.942;2023-05-10T03:16:52;16.80;54.10
15099;DHT22;33900;53.640;9.942;2023-05-10T03:21:49;16.80;54.10
15099;DHT22;33900;53.640;9.942;2023-05-10T03:24:20;16.80;54.20
15099;DHT22;33900;53.640;9.942;2023-05-10T03:26:48;16.80;54.20
15099;DHT22;33900;53.640;9.942;2023-05-10T03:29:16;16.80;54.20
15099;DHT22;33900;53.640;9.942;2023-05-10T03:31:45;16.80;54.20
15099;DHT22;33900;53.640;9.942;2023-05-10T03:34:13;16.80;54.20
15099;DHT22;33900;53.640;9.942;2023-05-10T03:36:42;16.70;54.20
15099;DHT22;33900;53.640;9.942;2023-05-10T03:39:10;16.70;54.30
15099;DHT22;33900;53.640;9.942;2023-05-10T03:41:36;16.70;54.40
15099;DHT22;33900;53.640;9.942;2023-05-10T03:44:02;16.70;54.40
15099;DHT22;33900;53.640;9.942;2023-05-10T03:46:28;16.70;54.50
15099;DHT22;33900;53.640;9.942;2023-05-10T03:48:54;16.70;54.60
15099;DHT22;33900;53.640;9.942;2023-05-10T03:51:19;16.70;54.60
15099;DHT22;33900;53.640;9.942;2023-05-10T03:53:45;16.70;54.60
15099;DHT22;33900;53.640;9.942;2023-05-10T03:56:11;16.70;54.50
15099;DHT22;33900;53.640;9.942;2023-05-10T03:58:37;16.70;54.60
15099;DHT22;33900;53.640;9.942;2023-05-10T04:01:06;16.60;54.60
15099;DHT22;33900;53.640;9.942;2023-05-10T04:03:31;16.70;54.70
15099;DHT22;33900;53.640;9.942;2023-05-10T04:05:59;16.70;54.90
15099;DHT22;33900;53.640;9.942;2023-05-10T04:08:29;16.60;54.80
15099;DHT22;33900;53.640;9.942;2023-05-10T04:11:09;16.60;54.70
15099;DHT22;33900;53.640;9.942;2023-05-10T04:13:35;16.70;54.60
15099;DHT22;33900;53.640;9.942;2023-05-10T04:16:05;16.70;54.60
15099;DHT22;33900;53.640;9.942;2023-05-10T04:18:30;16.70;54.70
15099;DHT22;33900;53.640;9.942;2023-05-10T04:20:57;16.60;54.70
15099;DHT22;33900;53.640;9.942;2023-05-10T04:23:23;16.60;54.80
15099;DHT22;33900;53.640;9.942;2023-05-10T04:26:00;16.60;54.80
15099;DHT22;33900;53.640;9.942;2023-05-10T04:28:26;16.60;55.00
15099;DHT22;33900;53.640;9.942;2023-05-10T04:30:52;16.60;55.00
15099;DHT22;33900;53.640;9.942;2023-05-10T04:33:18;16.60;54.80
15099;DHT22;33900;53.640;9.942;2023-05-10T04:35:43;16.60;54.90
15099;DHT22;33900;53.640;9.942;2023-05-10T04:38:11;16.60;54.90
15099;DHT22;33900;53.640;9.942;2023-05-10T04:40:37;16.60;55.00
15099;DHT22;33900;53.640;9.942;2023-05-10T04:43:02;16.60;55.00
15099;DHT22;33900;53.640;9.942;2023-05-10T04:45:28;16.60;54.90
15099;DHT22;33900;53.640;9.942;2023-05-10T04:47:53;16.70;54.90
15099;DHT22;33900;53.640;9.942;2023-05-10T04:50:22;16.60;54.90
15099;DHT22;33900;53.640;9.942;2023-05-10T04:52:48;16.60;55.00
15099;DHT22;33900;53.640;9.942;2023-05-10T04:55:13;16.60;55.20
15099;DHT22;33900;53.640;9.942;2023-05-10T04:57:39;16.60;55.30
15099;DHT22;33900;53.640;9.942;2023-05-10T05:00:05;16.60;55.30
15099;DHT22;33900;53.640;9.942;2023-05-10T05:02:30;16.60;55.30
15099;DHT22;33900;53.640;9.942;2023-05-10T05:04:56;16.70;55.20
15099;DHT22;33900;53.640;9.942;2023-05-10T05:07:23;16.70;55.10
15099;DHT22;33900;53.640;9.942;2023-05-10T05:09:49;16.70;55.20
15099;DHT22;33900;53.640;9.942;2023-05-10T05:12:14;16.70;55.30
15099;DHT22;33900;53.640;9.942;2023-05-10T05:14:43;16.70;55.20
15099;DHT22;33900;53.640;9.942;2023-05-10T05:17:11;16.80;55.20
15099;DHT22;33900;53.640;9.942;2023-05-10T05:19:37;16.80;55.20
15099;DHT22;33900;53.640;9.942;2023-05-10T05:22:03;16.80;55.20
15099;DHT22;33900;53.640;9.942;2023-05-10T05:24:29;16.80;55.30
15099;DHT22;33900;53.640;9.942;2023-05-10T05:26:55;16.80;55.30
15099;DHT22;33900;53.640;9.942;2023-05-10T05:29:20;16.90;55.20
15099;DHT22;33900;53.640;9.942;2023-05-10T05:31:46;16.90;55.10
15099;DHT22;33900;53.640;9.942;2023-05-10T05:34:12;16.90;55.00
15099;DHT22;33900;53.640;9.942;2023-05-10T05:36:40;16.90;55.70
15099;DHT22;33900;53.640;9.942;2023-05-10T05:39:09;16.90;54.90
15099;DHT22;33900;53.640;9.942;2023-05-10T05:41:35;17.00;54.90
15099;DHT22;33900;53.640;9.942;2023-05-10T05:44:00;17.00;54.90
15099;DHT22;33900;53.640;9.942;2023-05-10T05:46:26;17.00;54.90
15099;DHT22;33900;53.640;9.942;2023-05-10T05:48:55;17.00;54.90
15099;DHT22;33900;53.640;9.942;2023-05-10T05:51:20;17.10;55.10
15099;DHT22;33900;53.640;9.942;2023-05-10T05:53:46;17.10;55.20
15099;DHT22;33900;53.640;9.942;2023-05-10T05:56:11;17.10;55.10
15099;DHT22;33900;53.640;9.942;2023-05-10T05:58:40;17.20;55.00
15099;DHT22;33900;53.640;9.942;2023-05-10T06:01:06;17.20;54.90
15099;DHT22;33900;53.640;9.942;2023-05-10T06:03:33;17.20;55.00
15099;DHT22;33900;53.640;9.942;2023-05-10T06:05:58;17.30;55.10
15099;DHT22;33900;53.640;9.942;2023-05-10T06:08:24;17.30;54.90
15099;DHT22;33900;53.640;9.942;2023-05-10T06:10:50;17.30;54.70
15099;DHT22;33900;53.640;9.942;2023-05-10T06:13:15;17.40;54.80
15099;DHT22;33900;53.640;9.942;2023-05-10T06:15:41;17.40;54.70
15099;DHT22;33900;53.640;9.942;2023-05-10T06:18:06;17.50;54.80
15099;DHT22;33900;53.640;9.942;2023-05-10T06:20:32;17.50;54.80
15099;DHT22;33900;53.640;9.942;2023-05-10T06:22:59;17.60;54.70
15099;DHT22;33900;53.640;9.942;2023-05-10T06:25:24;17.60;54.50
15099;DHT22;33900;53.640;9.942;2023-05-10T06:27:50;17.70;54.50
15099;DHT22;33900;53.640;9.942;2023-05-10T06:30:16;17.70;54.50
15099;DHT22;33900;53.640;9.942;2023-05-10T06:32:41;17.70;54.50
15099;DHT22;33900;53.640;9.942;2023-05-10T06:35:09;17.70;54.40
15099;DHT22;33900;53.640;9.942;2023-05-10T06:37:34;17.80;54.60
15099;DHT22;33900;53.640;9.942;2023-05-10T06:40:00;17.70;54.40
15099;DHT22;33900;53.640;9.942;2023-05-10T06:42:26;17.80;54.40
15099;DHT22;33900;53.640;9.942;2023-05-10T06:44:52;17.80;54.40
15099;DHT22;33900;53.640;9.942;2023-05-10T06:47:18;17.80;54.40
15099;DHT22;33900;53.640;9.942;2023-05-10T06:49:44;17.90;54.50
15099;DHT22;33900;53.640;9.942;2023-05-10T06:52:12;17.90;54.60
15099;DHT22;33900;53.640;9.942;2023-05-10T06:54:38;17.90;54.50
15099;DHT22;33900;53.640;9.942;2023-05-10T06:57:06;17.90;54.50
15099;DHT22;33900;53.640;9.942;2023-05-10T06:59:32;17.90;54.50
15099;DHT22;33900;53.640;9.942;2023-05-10T07:01:57;17.90;54.60
15099;DHT22;33900;53.640;9.942;2023-05-10T07:04:23;17.90;54.50
15099;DHT22;33900;53.640;9.942;2023-05-10T07:06:49;18.00;54.50
15099;DHT22;33900;53.640;9.942;2023-05-10T07:09:15;18.00;54.70
15099;DHT22;33900;53.640;9.942;2023-05-10T07:11:41;18.10;54.60
15099;DHT22;33900;53.640;9.942;2023-05-10T07:14:09;18.10;54.50
15099;DHT22;33900;53.640;9.942;2023-05-10T07:16:35;18.20;54.40
15099;DHT22;33900;53.640;9.942;2023-05-10T07:19:01;18.20;54.30
15099;DHT22;33900;53.640;9.942;2023-05-10T07:21:30;18.30;54.20
15099;DHT22;33900;53.640;9.942;2023-05-10T07:23:56;18.30;54.30
15099;DHT22;33900;53.640;9.942;2023-05-10T07:26:22;18.40;54.30
15099;DHT22;33900;53.640;9.942;2023-05-10T07:28:48;18.40;54.20
15099;DHT22;33900;53.640;9.942;2023-05-10T07:31:16;18.50;54.20
15099;DHT22;33900;53.640;9.942;2023-05-10T07:33:42;18.60;54.20
15099;DHT22;33900;53.640;9.942;2023-05-10T07:36:11;18.70;54.20
15099;DHT22;33900;53.640;9.942;2023-05-10T07:38:36;18.70;54.70
15099;DHT22;33900;53.640;9.942;2023-05-10T07:41:02;18.70;54.10
15099;DHT22;33900;53.640;9.942;2023-05-10T07:43:30;18.70;54.20
15099;DHT22;33900;53.640;9.942;2023-05-10T07:45:55;18.70;54.20
15099;DHT22;33900;53.640;9.942;2023-05-10T07:48:22;18.70;54.10
15099;DHT22;33900;53.640;9.942;2023-05-10T07:50:48;18.70;54.10
15099;DHT22;33900;53.640;9.942;2023-05-10T07:53:14;18.80;54.20
15099;DHT22;33900;53.640;9.942;2023-05-10T07:55:39;18.80;54.30
15099;DHT22;33900;53.640;9.942;2023-05-10T07:58:05;18.80;54.40
15099;DHT22;33900;53.640;9.942;2023-05-10T08:00:31;18.80;54.40
15099;DHT22;33900;53.640;9.942;2023-05-10T08:02:57;18.90;54.50
15099;DHT22;33900;53.640;9.942;2023-05-10T08:05:24;18.90;54.50
15099;DHT22;33900;53.640;9.942;2023-05-10T08:07:50;18.90;54.50
15099;DHT22;33900;53.640;9.942;2023-05-10T08:10:15;18.90;54.50
15099;DHT22;33900;53.640;9.942;2023-05-10T08:12:45;18.90;54.70
15099;DHT22;33900;53.640;9.942;2023-05-10T08:15:10;19.00;54.80
15099;DHT22;33900;53.640;9.942;2023-05-10T08:17:36;19.00;54.70
15099;DHT22;33900;53.640;9.942;2023-05-10T08:20:02;19.00;54.70
15099;DHT22;33900;53.640;9.942;2023-05-10T08:22:27;19.10;54.90
15099;DHT22;33900;53.640;9.942;2023-05-10T08:24:56;19.10;54.90
15099;DHT22;33900;53.640;9.942;2023-05-10T08:27:22;19.10;54.90
15099;DHT22;33900;53.640;9.942;2023-05-10T08:29:49;19.10;54.90
15099;DHT22;33900;53.640;9.942;2023-05-10T08:32:19;19.10;55.00
15099;DHT22;33900;53.640;9.942;2023-05-10T08:34:45;19.30;54.90
15099;DHT22;33900;53.640;9.942;2023-05-10T08:37:14;19.30;54.70
15099;DHT22;33900;53.640;9.942;2023-05-10T08:39:39;19.30;54.80
15099;DHT22;33900;53.640;9.942;2023-05-10T08:42:05;19.30;54.70
15099;DHT22;33900;53.640;9.942;2023-05-10T08:44:31;19.30;54.60
15099;DHT22;33900;53.640;9.942;2023-05-10T08:46:57;19.30;54.70
15099;DHT22;33900;53.640;9.942;2023-05-10T08:49:24;19.30;54.90
15099;DHT22;33900;53.640;9.942;2023-05-10T08:51:54;19.30;54.90
15099;DHT22;33900;53.640;9.942;2023-05-10T08:54:23;19.30;54.90
15099;DHT22;33900;53.640;9.942;2023-05-10T08:56:50;19.20;54.90
15099;DHT22;33900;53.640;9.942;2023-05-10T08:59:15;19.30;54.90
15099;DHT22;33900;53.640;9.942;2023-05-10T09:01:43;19.30;54.70
15099;DHT22;33900;53.640;9.942;2023-05-10T09:04:10;19.30;54.70
15099;DHT22;33900;53.640;9.942;2023-05-10T09:06:35;19.40;54.60
15099;DHT22;33900;53.640;9.942;2023-05-10T09:09:01;19.40;54.60
15099;DHT22;33900;53.640;9.942;2023-05-10T09:11:29;19.40;54.70
15099;DHT22;33900;53.640;9.942;2023-05-10T09:13:55;19.40;54.70
15099;DHT22;33900;53.640;9.942;2023-05-10T09:16:21;19.40;54.80
15099;DHT22;33900;53.640;9.942;2023-05-10T09:18:47;19.50;54.90
15099;DHT22;33900;53.640;9.942;2023-05-10T09:21:13;19.50;54.80
15099;DHT22;33900;53.640;9.942;2023-05-10T09:23:42;19.50;54.90
15099;DHT22;33900;53.640;9.942;2023-05-10T09:26:07;19.50;55.00
15099;DHT22;33900;53.640;9.942;2023-05-10T09:31:21;19.60;55.20
15099;DHT22;33900;53.640;9.942;2023-05-10T09:34:07;19.50;55.00
15099;DHT22;33900;53.640;9.942;2023-05-10T09:36:32;19.50;54.90
15099;DHT22;33900;53.640;9.942;2023-05-10T09:39:01;19.50;55.00
15099;DHT22;33900;53.640;9.942;2023-05-10T09:41:30;19.50;55.20
15099;DHT22;33900;53.640;9.942;2023-05-10T09:43:56;19.50;55.50
15099;DHT22;33900;53.640;9.942;2023-05-10T09:46:22;19.40;55.60
15099;DHT22;33900;53.640;9.942;2023-05-10T09:48:48;19.40;55.90
15099;DHT22;33900;53.640;9.942;2023-05-10T09:51:20;19.40;55.80
15099;DHT22;33900;53.640;9.942;2023-05-10T09:53:46;19.30;55.80
15099;DHT22;33900;53.640;9.942;2023-05-10T09:56:12;19.30;56.00
15099;DHT22;33900;53.640;9.942;2023-05-10T09:58:38;19.30;56.40
15099;DHT22;33900;53.640;9.942;2023-05-10T10:01:04;19.20;56.90
15099;DHT22;33900;53.640;9.942;2023-05-10T10:03:29;19.10;57.30
15099;DHT22;33900;53.640;9.942;2023-05-10T10:05:56;19.10;57.50
15099;DHT22;33900;53.640;9.942;2023-05-10T10:08:21;19.00;58.20
15099;DHT22;33900;53.640;9.942;2023-05-10T10:10:47;19.00;58.40
15099;DHT22;33900;53.640;9.942;2023-05-10T10:13:13;18.80;58.60
15099;DHT22;33900;53.640;9.942;2023-05-10T10:15:39;18.80;59.20
15099;DHT22;33900;53.640;9.942;2023-05-10T10:18:05;18.70;59.50
15099;DHT22;33900;53.640;9.942;2023-05-10T10:20:30;18.60;59.80
15099;DHT22;33900;53.640;9.942;2023-05-10T10:22:56;18.50;60.00
15099;DHT22;33900;53.640;9.942;2023-05-10T10:25:22;18.50;60.60
15099;DHT22;33900;53.640;9.942;2023-05-10T10:35:36;18.20;62.50
15099;DHT22;33900;53.640;9.942;2023-05-10T10:38:01;18.10;62.50
15099;DHT22;33900;53.640;9.942;2023-05-10T10:40:32;18.10;63.20
15099;DHT22;33900;53.640;9.942;2023-05-10T10:42:58;18.00;63.50
15099;DHT22;33900;53.640;9.942;2023-05-10T10:45:25;18.00;64.10
15099;DHT22;33900;53.640;9.942;2023-05-10T10:50:56;17.90;64.50
15099;DHT22;33900;53.640;9.942;2023-05-10T10:53:21;17.80;64.90
15099;DHT22;33900;53.640;9.942;2023-05-10T10:55:47;17.80;65.10
15099;DHT22;33900;53.640;9.942;2023-05-10T10:58:32;17.80;65.50
15099;DHT22;33900;53.640;9.942;2023-05-10T11:01:11;17.80;65.80
15099;DHT22;33900;53.640;9.942;2023-05-10T11:03:41;17.80;66.20
15099;DHT22;33900;53.640;9.942;2023-05-10T11:06:28;17.80;66.50
15099;DHT22;33900;53.640;9.942;2023-05-10T11:08:54;17.80;66.10
15099;DHT22;33900;53.640;9.942;2023-05-10T11:11:20;17.90;65.60
15099;DHT22;33900;53.640;9.942;2023-05-10T11:13:46;17.90;65.60
15099;DHT22;33900;53.640;9.942;2023-05-10T11:16:15;17.90;65.70
15099;DHT22;33900;53.640;9.942;2023-05-10T11:18:41;17.90;65.80
15099;DHT22;33900;53.640;9.942;2023-05-10T11:21:18;17.90;65.50
15099;DHT22;33900;53.640;9.942;2023-05-10T11:26:13;18.00;64.90
15099;DHT22;33900;53.640;9.942;2023-05-10T11:28:43;18.00;65.40
15099;DHT22;33900;53.640;9.942;2023-05-10T11:31:09;18.00;66.30
15099;DHT22;33900;53.640;9.942;2023-05-10T11:33:44;18.00;66.50
15099;DHT22;33900;53.640;9.942;2023-05-10T11:36:26;18.00;66.80
15099;DHT22;33900;53.640;9.942;2023-05-10T11:38:55;18.00;67.30
15099;DHT22;33900;53.640;9.942;2023-05-10T11:41:22;18.00;66.70
15099;DHT22;33900;53.640;9.942;2023-05-10T11:43:52;18.00;67.00
15099;DHT22;33900;53.640;9.942;2023-05-10T11:46:22;18.00;67.70
15099;DHT22;33900;53.640;9.942;2023-05-10T11:48:52;17.90;68.30
15099;DHT22;33900;53.640;9.942;2023-05-10T11:51:22;17.90;68.20
15099;DHT22;33900;53.640;9.942;2023-05-10T11:53:48;17.90;68.60
15099;DHT22;33900;53.640;9.942;2023-05-10T11:56:14;17.90;68.70
15099;DHT22;33900;53.640;9.942;2023-05-10T11:58:41;17.90;69.00
15099;DHT22;33900;53.640;9.942;2023-05-10T12:01:07;17.90;69.10
15099;DHT22;33900;53.640;9.942;2023-05-10T12:03:33;17.90;69.90
15099;DHT22;33900;53.640;9.942;2023-05-10T12:06:00;17.90;69.50
15099;DHT22;33900;53.640;9.942;2023-05-10T12:08:29;17.90;69.30
15099;DHT22;33900;53.640;9.942;2023-05-10T12:11:08;17.90;69.50
15099;DHT22;33900;53.640;9.942;2023-05-10T12:13:40;17.90;69.80
15099;DHT22;33900;53.640;9.942;2023-05-10T12:16:19;17.90;70.20
15099;DHT22;33900;53.640;9.942;2023-05-10T12:18:49;17.90;70.80
15099;DHT22;33900;53.640;9.942;2023-05-10T12:21:21;17.90;70.80
15099;DHT22;33900;53.640;9.942;2023-05-10T12:23:51;17.90;70.80
15099;DHT22;33900;53.640;9.942;2023-05-10T12:26:24;17.90;71.20
15099;DHT22;33900;53.640;9.942;2023-05-10T12:28:52;17.80;71.20
15099;DHT22;33900;53.640;9.942;2023-05-10T12:31:18;17.90;71.30
15099;DHT22;33900;53.640;9.942;2023-05-10T12:33:44;17.90;71.30
15099;DHT22;33900;53.640;9.942;2023-05-10T12:36:11;17.90;70.80
15099;DHT22;33900;53.640;9.942;2023-05-10T12:38:41;17.90;70.80
15099;DHT22;33900;53.640;9.942;2023-05-10T12:41:17;17.90;71.10
15099;DHT22;33900;53.640;9.942;2023-05-10T12:43:44;18.00;71.70
15099;DHT22;33900;53.640;9.942;2023-05-10T12:46:11;17.90;71.90
15099;DHT22;33900;53.640;9.942;2023-05-10T12:48:38;18.00;72.20
15099;DHT22;33900;53.640;9.942;2023-05-10T12:51:04;17.90;72.40
15099;DHT22;33900;53.640;9.942;2023-05-10T12:53:30;18.00;72.20
15099;DHT22;33900;53.640;9.942;2023-05-10T12:55:56;18.00;72.10
15099;DHT22;33900;53.640;9.942;2023-05-10T12:58:24;18.00;71.90
15099;DHT22;33900;53.640;9.942;2023-05-10T13:00:53;18.10;72.00
15099;DHT22;33900;53.640;9.942;2023-05-10T13:03:19;18.10;71.70
15099;DHT22;33900;53.640;9.942;2023-05-10T13:05:45;18.20;72.30
15099;DHT22;33900;53.640;9.942;2023-05-10T13:08:14;18.20;72.20
15099;DHT22;33900;53.640;9.942;2023-05-10T13:10:42;18.20;71.90
15099;DHT22;33900;53.640;9.942;2023-05-10T13:13:11;18.20;71.90
15099;DHT22;33900;53.640;9.942;2023-05-10T13:15:36;18.30;71.70
15099;DHT22;33900;53.640;9.942;2023-05-10T13:18:02;18.30;71.90
15099;DHT22;33900;53.640;9.942;2023-05-10T13:20:28;18.40;71.70
15099;DHT22;33900;53.640;9.942;2023-05-10T13:22:53;18.40;71.60
15099;DHT22;33900;53.640;9.942;2023-05-10T13:25:19;18.50;71.50
15099;DHT22;33900;53.640;9.942;2023-05-10T13:27:45;18.50;71.10
15099;DHT22;33900;53.640;9.942;2023-05-10T13:30:13;18.50;70.80
15099;DHT22;33900;53.640;9.942;2023-05-10T13:32:42;18.60;70.80
15099;DHT22;33900;53.640;9.942;2023-05-10T13:35:08;18.70;71.00
15099;DHT22;33900;53.640;9.942;2023-05-10T13:37:33;18.70;71.20
15099;DHT22;33900;53.640;9.942;2023-05-10T13:40:03;18.80;70.30
15099;DHT22;33900;53.640;9.942;2023-05-10T13:42:29;18.80;70.50
15099;DHT22;33900;53.640;9.942;2023-05-10T13:45:00;18.80;70.40
15099;DHT22;33900;53.640;9.942;2023-05-10T13:47:30;18.90;70.30
15099;DHT22;33900;53.640;9.942;2023-05-10T13:49:57;18.90;70.50
15099;DHT22;33900;53.640;9.942;2023-05-10T13:52:23;18.90;70.50
15099;DHT22;33900;53.640;9.942;2023-05-10T13:54:49;18.90;70.60
15099;DHT22;33900;53.640;9.942;2023-05-10T13:57:18;18.90;70.70
15099;DHT22;33900;53.640;9.942;2023-05-10T13:59:44;18.90;71.20
15099;DHT22;33900;53.640;9.942;2023-05-10T14:02:09;18.90;71.30
15099;DHT22;33900;53.640;9.942;2023-05-10T14:04:37;18.90;71.30
15099;DHT22;33900;53.640;9.942;2023-05-10T14:07:03;18.90;71.30
15099;DHT22;33900;53.640;9.942;2023-05-10T14:09:29;18.90;71.10
15099;DHT22;33900;53.640;9.942;2023-05-10T14:11:57;19.00;70.90
15099;DHT22;33900;53.640;9.942;2023-05-10T14:14:24;19.00;70.80
15099;DHT22;33900;53.640;9.942;2023-05-10T14:16:53;19.00;70.80
15099;DHT22;33900;53.640;9.942;2023-05-10T14:19:19;19.10;71.00
15099;DHT22;33900;53.640;9.942;2023-05-10T14:21:45;19.10;71.30
15099;DHT22;33900;53.640;9.942;2023-05-10T14:24:10;19.10;71.30
15099;DHT22;33900;53.640;9.942;2023-05-10T14:26:36;19.10;71.50
15099;DHT22;33900;53.640;9.942;2023-05-10T14:29:02;19.10;71.70
15099;DHT22;33900;53.640;9.942;2023-05-10T14:31:27;19.10;72.00
15099;DHT22;33900;53.640;9.942;2023-05-10T14:34:01;19.20;72.00
15099;DHT22;33900;53.640;9.942;2023-05-10T14:36:29;19.10;72.30
15099;DHT22;33900;53.640;9.942;2023-05-10T14:38:56;19.10;72.40
15099;DHT22;33900;53.640;9.942;2023-05-10T14:41:24;19.10;73.20
15099;DHT22;33900;53.640;9.942;2023-05-10T14:43:53;19.10;71.80
15099;DHT22;33900;53.640;9.942;2023-05-10T14:46:18;19.10;71.70
15099;DHT22;33900;53.640;9.942;2023-05-10T14:48:44;19.10;71.40
15099;DHT22;33900;53.640;9.942;2023-05-10T14:51:10;19.20;71.60
15099;DHT22;33900;53.640;9.942;2023-05-10T14:53:36;19.20;71.40
15099;DHT22;33900;53.640;9.942;2023-05-10T14:56:02;19.20;72.40
15099;DHT22;33900;53.640;9.942;2023-05-10T14:58:28;19.20;71.50
15099;DHT22;33900;53.640;9.942;2023-05-10T15:00:54;19.30;71.70
15099;DHT22;33900;53.640;9.942;2023-05-10T15:03:19;19.30;71.80
15099;DHT22;33900;53.640;9.942;2023-05-10T15:05:45;19.30;71.80
15099;DHT22;33900;53.640;9.942;2023-05-10T15:08:14;19.30;71.90
15099;DHT22;33900;53.640;9.942;2023-05-10T15:10:40;19.30;71.90
15099;DHT22;33900;53.640;9.942;2023-05-10T15:13:05;19.30;71.20
15099;DHT22;33900;53.640;9.942;2023-05-10T15:15:31;19.30;71.30
15099;DHT22;33900;53.640;9.942;2023-05-10T15:17:57;19.30;71.40
15099;DHT22;33900;53.640;9.942;2023-05-10T15:20:25;19.30;71.00
15099;DHT22;33900;53.640;9.942;2023-05-10T15:22:51;19.30;71.10
15099;DHT22;33900;53.640;9.942;2023-05-10T15:25:16;19.30;70.90
15099;DHT22;33900;53.640;9.942;2023-05-10T15:27:42;19.30;70.90
15099;DHT22;33900;53.640;9.942;2023-05-10T15:30:09;19.30;70.90
15099;DHT22;33900;53.640;9.942;2023-05-10T15:32:35;19.40;71.00
15099;DHT22;33900;53.640;9.942;2023-05-10T15:35:03;19.30;70.70
15099;DHT22;33900;53.640;9.942;2023-05-10T15:37:29;19.30;70.70
15099;DHT22;33900;53.640;9.942;2023-05-10T15:39:55;19.30;70.90
15099;DHT22;33900;53.640;9.942;2023-05-10T15:42:28;19.40;70.90
15099;DHT22;33900;53.640;9.942;2023-05-10T15:44:56;19.30;70.80
15099;DHT22;33900;53.640;9.942;2023-05-10T15:47:22;19.30;70.80
15099;DHT22;33900;53.640;9.942;2023-05-10T15:49:47;19.30;70.70
15099;DHT22;33900;53.640;9.942;2023-05-10T15:52:13;19.30;70.90
15099;DHT22;33900;53.640;9.942;2023-05-10T15:54:38;19.30;70.70
15099;DHT22;33900;53.640;9.942;2023-05-10T15:57:04;19.30;70.50
15099;DHT22;33900;53.640;9.942;2023-05-10T15:59:29;19.30;70.50
15099;DHT22;33900;53.640;9.942;2023-05-10T16:01:56;19.30;70.60
15099;DHT22;33900;53.640;9.942;2023-05-10T16:04:21;19.20;70.60
15099;DHT22;33900;53.640;9.942;2023-05-10T16:06:47;19.20;70.40
15099;DHT22;33900;53.640;9.942;2023-05-10T16:09:13;19.20;70.20
15099;DHT22;33900;53.640;9.942;2023-05-10T16:11:41;19.20;70.40
15099;DHT22;33900;53.640;9.942;2023-05-10T16:14:07;19.10;70.60
15099;DHT22;33900;53.640;9.942;2023-05-10T16:16:32;19.10;70.80